PWSweather.com
Personal Weather Stations
Station Observations
MAKAWAOWX1
Up Country Maui, Makawao, HI 96768

Up Country MauiMakawao, HI 96768

Lat: 20.856944, Lon: -156.3149667

Elevation: 1500

Station Type: Davis Vantage Pro

www.dwayneyamato@hawaiiantel.net

High Low Average
Temperature 79.8°F26.6°C 64.1°F17.8°C 70.7°F21.5°C
Dew Point 66.5°F19.2°C 58.2°F14.6°C 62.3°F16.8°C
Winds Calm Calm Calm Calm Calm NCalm N
Wind Gusts -- -- --
Humidity 93% 56% 76%
Pressure 30.04 in1017.3 mb 29.90 in1012.5 mb -
Precipitation 0.18 in4.6 mm - -
Hour Temp Dew Point Humidity Winds Wind Gusts Pressure Precip Precip Rate Daily Precip Total
12:00 AM 65.9°F18.8°C 61.6°F16.4°C 86% Calm Calm -- 29.96 in1014.6 mb - 0.00 in0.0 mm 0.00 in0.0 mm
12:10 AM 66.1°F18.9°C 62.1°F16.7°C 87% Calm Calm -- 29.96 in1014.6 mb - 0.00 in0.0 mm 0.00 in0.0 mm
12:20 AM 66.0°F18.9°C 62.3°F16.8°C 88% Calm Calm -- 29.96 in1014.6 mb - 0.00 in0.0 mm 0.00 in0.0 mm
12:30 AM 66.2°F19.0°C 63.5°F17.5°C 91% Calm Calm -- 29.96 in1014.6 mb - 0.01 in0.3 mm 0.01 in0.3 mm
12:40 AM 66.0°F18.9°C 63.0°F17.2°C 90% Calm Calm -- 29.95 in1014.2 mb - 0.01 in0.3 mm 0.02 in0.5 mm
12:50 AM 66.1°F18.9°C 63.1°F17.3°C 90% Calm Calm -- 29.95 in1014.2 mb - 0.00 in0.0 mm 0.02 in0.5 mm
01:00 AM 65.9°F18.8°C 62.9°F17.2°C 90% Calm Calm -- 29.95 in1014.2 mb - 0.00 in0.0 mm 0.02 in0.5 mm
01:10 AM 65.8°F18.8°C 62.8°F17.1°C 90% Calm Calm -- 29.95 in1014.2 mb - 0.00 in0.0 mm 0.02 in0.5 mm
01:20 AM 65.8°F18.8°C 62.8°F17.1°C 90% Calm Calm -- 29.95 in1014.2 mb - 0.00 in0.0 mm 0.02 in0.5 mm
01:30 AM 65.8°F18.8°C 63.1°F17.3°C 91% Calm Calm -- 29.95 in1014.2 mb - 0.01 in0.3 mm 0.03 in0.8 mm
01:40 AM 65.5°F18.6°C 62.2°F16.8°C 89% Calm Calm -- 29.95 in1014.2 mb - 0.01 in0.3 mm 0.04 in1.0 mm
01:50 AM 65.4°F18.6°C 62.4°F16.9°C 90% Calm Calm -- 29.95 in1014.2 mb - 0.01 in0.3 mm 0.05 in1.3 mm
02:00 AM 65.4°F18.6°C 62.7°F17.1°C 91% Calm Calm -- 29.95 in1014.2 mb - 0.02 in0.5 mm 0.07 in1.8 mm
02:10 AM 65.4°F18.6°C 63.0°F17.2°C 92% Calm Calm -- 29.95 in1014.2 mb - 0.01 in0.3 mm 0.07 in1.8 mm
02:20 AM 65.8°F18.8°C 63.7°F17.6°C 93% Calm Calm -- 29.94 in1013.9 mb - 0.00 in0.0 mm 0.07 in1.8 mm
02:30 AM 65.9°F18.8°C 63.8°F17.7°C 93% Calm Calm -- 29.94 in1013.9 mb - 0.02 in0.5 mm 0.09 in2.3 mm
02:40 AM 65.9°F18.8°C 63.8°F17.7°C 93% Calm Calm -- 29.93 in1013.5 mb - 0.05 in1.3 mm 0.13 in3.3 mm
02:50 AM 65.6°F18.7°C 63.2°F17.3°C 92% Calm Calm -- 29.93 in1013.5 mb - 0.02 in0.5 mm 0.14 in3.6 mm
03:00 AM 65.2°F18.4°C 62.8°F17.1°C 92% Calm Calm -- 29.93 in1013.5 mb - 0.02 in0.5 mm 0.16 in4.1 mm
03:10 AM 65.0°F18.3°C 62.6°F17.0°C 92% Calm Calm -- 29.93 in1013.5 mb - 0.00 in0.0 mm 0.16 in4.1 mm
03:20 AM 65.0°F18.3°C 62.6°F17.0°C 92% Calm Calm -- 29.93 in1013.5 mb - 0.01 in0.3 mm 0.17 in4.3 mm
03:30 AM 65.0°F18.3°C 62.3°F16.8°C 91% Calm Calm -- 29.92 in1013.2 mb - 0.01 in0.3 mm 0.18 in4.6 mm
03:40 AM 64.9°F18.3°C 61.6°F16.4°C 89% Calm Calm -- 29.93 in1013.5 mb - 0.00 in0.0 mm 0.18 in4.6 mm
03:50 AM 64.7°F18.2°C 61.4°F16.3°C 89% Calm Calm -- 29.92 in1013.2 mb - 0.00 in0.0 mm 0.18 in4.6 mm
04:00 AM 64.7°F18.2°C 61.4°F16.3°C 89% Calm Calm -- 29.92 in1013.2 mb - 0.00 in0.0 mm 0.18 in4.6 mm
04:10 AM 64.7°F18.2°C 61.1°F16.2°C 88% Calm Calm -- 29.92 in1013.2 mb - 0.00 in0.0 mm 0.18 in4.6 mm
04:20 AM 64.7°F18.2°C 61.1°F16.2°C 88% Calm Calm -- 29.92 in1013.2 mb - 0.00 in0.0 mm 0.18 in4.6 mm
04:30 AM 64.7°F18.2°C 61.4°F16.3°C 89% Calm Calm -- 29.92 in1013.2 mb - 0.00 in0.0 mm 0.18 in4.6 mm
04:40 AM 64.6°F18.1°C 61.0°F16.1°C 88% Calm Calm -- 29.92 in1013.2 mb - 0.00 in0.0 mm 0.18 in4.6 mm
04:50 AM 64.4°F18.0°C 60.4°F15.8°C 87% Calm Calm -- 29.93 in1013.5 mb - 0.00 in0.0 mm 0.18 in4.6 mm
05:00 AM 64.2°F17.9°C 59.9°F15.5°C 86% Calm Calm -- 29.93 in1013.5 mb - 0.00 in0.0 mm 0.18 in4.6 mm
05:10 AM 64.1°F17.8°C 59.5°F15.3°C 85% Calm Calm -- 29.93 in1013.5 mb - 0.00 in0.0 mm 0.18 in4.6 mm
05:20 AM 64.4°F18.0°C 59.5°F15.3°C 84% Calm Calm -- 29.93 in1013.5 mb - 0.00 in0.0 mm 0.18 in4.6 mm
05:30 AM 64.9°F18.3°C 59.9°F15.5°C 84% Calm Calm -- 29.94 in1013.9 mb - 0.00 in0.0 mm 0.18 in4.6 mm
05:40 AM 64.9°F18.3°C 59.9°F15.5°C 84% Calm Calm -- 29.94 in1013.9 mb - 0.00 in0.0 mm 0.18 in4.6 mm
05:50 AM 64.6°F18.1°C 60.0°F15.6°C 85% Calm Calm -- 29.95 in1014.2 mb - 0.00 in0.0 mm 0.18 in4.6 mm
06:00 AM 64.7°F18.2°C 60.7°F15.9°C 87% Calm Calm -- 29.95 in1014.2 mb - 0.00 in0.0 mm 0.18 in4.6 mm
06:10 AM 64.7°F18.2°C 60.8°F16.0°C 87% Calm Calm -- 29.95 in1014.2 mb - 0.00 in0.0 mm 0.18 in4.6 mm
06:20 AM 64.9°F18.3°C 59.6°F15.3°C 83% Calm Calm -- 29.95 in1014.2 mb - 0.00 in0.0 mm 0.18 in4.6 mm
06:30 AM 65.3°F18.5°C 59.3°F15.2°C 81% Calm Calm -- 29.96 in1014.6 mb - 0.00 in0.0 mm 0.18 in4.6 mm
06:40 AM 65.4°F18.6°C 59.4°F15.2°C 81% Calm Calm -- 29.96 in1014.6 mb - 0.00 in0.0 mm 0.18 in4.6 mm
06:50 AM 65.6°F18.7°C 59.3°F15.2°C 80% Calm Calm -- 29.96 in1014.6 mb - 0.00 in0.0 mm 0.18 in4.6 mm
07:00 AM 66.0°F18.9°C 59.7°F15.4°C 80% Calm Calm -- 29.96 in1014.6 mb - 0.00 in0.0 mm 0.18 in4.6 mm
07:10 AM 66.6°F19.2°C 60.2°F15.7°C 80% Calm Calm -- 29.97 in1014.9 mb - 0.00 in0.0 mm 0.18 in4.6 mm
07:20 AM 67.2°F19.6°C 60.8°F16.0°C 80% Calm Calm -- 29.97 in1014.9 mb - 0.00 in0.0 mm 0.18 in4.6 mm
07:30 AM 67.7°F19.8°C 60.2°F15.7°C 77% Calm Calm -- 29.97 in1014.9 mb - 0.00 in0.0 mm 0.18 in4.6 mm
07:40 AM 68.1°F20.1°C 60.6°F15.9°C 77% Calm Calm -- 29.98 in1015.2 mb - 0.00 in0.0 mm 0.18 in4.6 mm
07:50 AM 68.8°F20.4°C 60.9°F16.1°C 76% Calm Calm -- 29.98 in1015.2 mb - 0.00 in0.0 mm 0.18 in4.6 mm
08:00 AM 69.7°F20.9°C 60.7°F15.9°C 73% Calm Calm -- 29.98 in1015.2 mb - 0.00 in0.0 mm 0.18 in4.6 mm
08:10 AM 70.9°F21.6°C 61.0°F16.1°C 71% Calm Calm -- 29.99 in1015.6 mb - 0.00 in0.0 mm 0.18 in4.6 mm
08:20 AM 71.7°F22.1°C 62.6°F17.0°C 73% Calm Calm -- 30.00 in1015.9 mb - 0.00 in0.0 mm 0.18 in4.6 mm
08:30 AM 72.0°F22.2°C 62.0°F16.7°C 71% Calm Calm -- 29.99 in1015.6 mb - 0.00 in0.0 mm 0.18 in4.6 mm
08:40 AM 72.7°F22.6°C 61.9°F16.6°C 69% Calm Calm -- 30.00 in1015.9 mb - 0.00 in0.0 mm 0.18 in4.6 mm
08:50 AM 73.0°F22.8°C 61.8°F16.6°C 68% Calm Calm -- 30.00 in1015.9 mb - 0.00 in0.0 mm 0.18 in4.6 mm
09:00 AM 73.2°F22.9°C 62.4°F16.9°C 69% Calm Calm -- 30.01 in1016.3 mb - 0.00 in0.0 mm 0.18 in4.6 mm
09:10 AM 72.9°F22.7°C 62.5°F16.9°C 70% Calm Calm -- 30.00 in1015.9 mb - 0.00 in0.0 mm 0.18 in4.6 mm
09:20 AM 73.7°F23.2°C 63.7°F17.6°C 71% Calm Calm -- 30.00 in1015.9 mb - 0.00 in0.0 mm 0.18 in4.6 mm
09:30 AM 74.5°F23.6°C 64.8°F18.2°C 72% Calm Calm -- 30.00 in1015.9 mb - 0.00 in0.0 mm 0.18 in4.6 mm
09:40 AM 74.8°F23.8°C 63.5°F17.5°C 68% Calm Calm -- 30.00 in1015.9 mb - 0.00 in0.0 mm 0.18 in4.6 mm
09:50 AM 75.2°F24.0°C 63.1°F17.3°C 66% Calm Calm -- 30.01 in1016.3 mb - 0.00 in0.0 mm 0.18 in4.6 mm
10:00 AM 75.4°F24.1°C 64.1°F17.8°C 68% Calm Calm -- 30.00 in1015.9 mb - 0.00 in0.0 mm 0.18 in4.6 mm
10:10 AM 76.1°F24.5°C 63.0°F17.2°C 64% Calm Calm -- 30.00 in1015.9 mb - 0.00 in0.0 mm 0.18 in4.6 mm
10:20 AM 76.4°F24.7°C 63.8°F17.7°C 65% Calm Calm -- 30.00 in1015.9 mb - 0.00 in0.0 mm 0.18 in4.6 mm
10:30 AM 77.2°F25.1°C 64.1°F17.8°C 64% Calm Calm -- 30.00 in1015.9 mb - 0.00 in0.0 mm 0.18 in4.6 mm
10:40 AM 77.8°F25.4°C 65.5°F18.6°C 66% Calm Calm -- 30.00 in1015.9 mb - 0.00 in0.0 mm 0.18 in4.6 mm
10:50 AM 77.8°F25.4°C 65.1°F18.4°C 65% Calm Calm -- 29.99 in1015.6 mb - 0.00 in0.0 mm 0.18 in4.6 mm
11:00 AM 78.1°F25.6°C 64.5°F18.1°C 63% Calm Calm -- 29.99 in1015.6 mb - 0.00 in0.0 mm 0.18 in4.6 mm
11:10 AM 78.4°F25.8°C 64.3°F17.9°C 62% Calm Calm -- 29.99 in1015.6 mb - 0.00 in0.0 mm 0.18 in4.6 mm
11:20 AM 78.0°F25.6°C 64.8°F18.2°C 64% Calm Calm -- 29.98 in1015.2 mb - 0.00 in0.0 mm 0.18 in4.6 mm
11:30 AM 77.6°F25.3°C 64.5°F18.1°C 64% Calm Calm -- 29.98 in1015.2 mb - 0.00 in0.0 mm 0.18 in4.6 mm
11:40 AM 78.1°F25.6°C 64.0°F17.8°C 62% Calm Calm -- 29.98 in1015.2 mb - 0.00 in0.0 mm 0.18 in4.6 mm
11:50 AM 78.2°F25.7°C 62.7°F17.1°C 59% Calm Calm -- 29.98 in1015.2 mb - 0.00 in0.0 mm 0.18 in4.6 mm
12:00 PM 78.4°F25.8°C 63.8°F17.7°C 61% Calm Calm -- 29.97 in1014.9 mb - 0.00 in0.0 mm 0.18 in4.6 mm
12:10 PM 78.6°F25.9°C 64.9°F18.3°C 63% Calm Calm -- 29.96 in1014.6 mb - 0.00 in0.0 mm 0.18 in4.6 mm
12:20 PM 78.8°F26.0°C 63.7°F17.6°C 60% Calm Calm -- 29.96 in1014.6 mb - 0.00 in0.0 mm 0.18 in4.6 mm
12:30 PM 78.7°F25.9°C 64.1°F17.8°C 61% Calm Calm -- 29.96 in1014.6 mb - 0.00 in0.0 mm 0.18 in4.6 mm
12:40 PM 79.1°F26.2°C 64.0°F17.8°C 60% Calm Calm -- 29.95 in1014.2 mb - 0.00 in0.0 mm 0.18 in4.6 mm
12:50 PM 79.3°F26.3°C 66.5°F19.2°C 65% Calm Calm -- 29.95 in1014.2 mb - 0.00 in0.0 mm 0.18 in4.6 mm
01:00 PM 79.4°F26.3°C 65.7°F18.7°C 63% Calm Calm -- 29.94 in1013.9 mb - 0.00 in0.0 mm 0.18 in4.6 mm
01:10 PM 79.0°F26.1°C 65.3°F18.5°C 63% Calm Calm -- 29.94 in1013.9 mb - 0.00 in0.0 mm 0.18 in4.6 mm
01:20 PM 79.4°F26.3°C 65.7°F18.7°C 63% Calm Calm -- 29.94 in1013.9 mb - 0.00 in0.0 mm 0.18 in4.6 mm
01:30 PM 79.1°F26.2°C 64.5°F18.1°C 61% Calm Calm -- 29.94 in1013.9 mb - 0.00 in0.0 mm 0.18 in4.6 mm
01:40 PM 79.8°F26.6°C 66.1°F18.9°C 63% Calm Calm -- 29.94 in1013.9 mb - 0.00 in0.0 mm 0.18 in4.6 mm
01:50 PM 79.2°F26.2°C 64.6°F18.1°C 61% Calm Calm -- 29.93 in1013.5 mb - 0.00 in0.0 mm 0.18 in4.6 mm
02:00 PM 79.3°F26.3°C 63.2°F17.3°C 58% Calm Calm -- 29.93 in1013.5 mb - 0.00 in0.0 mm 0.18 in4.6 mm
02:10 PM 78.6°F25.9°C 65.4°F18.6°C 64% Calm Calm -- 29.93 in1013.5 mb - 0.00 in0.0 mm 0.18 in4.6 mm
02:20 PM 79.1°F26.2°C 64.5°F18.1°C 61% Calm Calm -- 29.92 in1013.2 mb - 0.00 in0.0 mm 0.18 in4.6 mm
02:30 PM 78.3°F25.7°C 65.6°F18.7°C 65% Calm Calm -- 29.92 in1013.2 mb - 0.00 in0.0 mm 0.18 in4.6 mm
02:40 PM 78.5°F25.8°C 64.8°F18.2°C 63% Calm Calm -- 29.91 in1012.9 mb - 0.00 in0.0 mm 0.18 in4.6 mm
02:50 PM 79.1°F26.2°C 64.5°F18.1°C 61% Calm Calm -- 29.91 in1012.9 mb - 0.00 in0.0 mm 0.18 in4.6 mm
03:00 PM 79.2°F26.2°C 64.6°F18.1°C 61% Calm Calm -- 29.91 in1012.9 mb - 0.00 in0.0 mm 0.18 in4.6 mm
03:10 PM 79.1°F26.2°C 63.0°F17.2°C 58% Calm Calm -- 29.91 in1012.9 mb - 0.00 in0.0 mm 0.18 in4.6 mm
03:20 PM 78.0°F25.6°C 61.0°F16.1°C 56% Calm Calm -- 29.90 in1012.5 mb - 0.00 in0.0 mm 0.18 in4.6 mm
03:30 PM 77.6°F25.3°C 62.2°F16.8°C 59% Calm Calm -- 29.91 in1012.9 mb - 0.00 in0.0 mm 0.18 in4.6 mm
03:40 PM 76.5°F24.7°C 63.8°F17.7°C 65% Calm Calm -- 29.91 in1012.9 mb - 0.00 in0.0 mm 0.18 in4.6 mm
03:50 PM 76.9°F24.9°C 62.4°F16.9°C 61% Calm Calm -- 29.91 in1012.9 mb - 0.00 in0.0 mm 0.18 in4.6 mm
04:00 PM 77.0°F25.0°C 62.5°F16.9°C 61% Calm Calm -- 29.91 in1012.9 mb - 0.00 in0.0 mm 0.18 in4.6 mm
04:10 PM 76.6°F24.8°C 64.4°F18.0°C 66% Calm Calm -- 29.91 in1012.9 mb - 0.00 in0.0 mm 0.18 in4.6 mm
04:20 PM 76.4°F24.7°C 63.4°F17.4°C 64% Calm Calm -- 29.91 in1012.9 mb - 0.00 in0.0 mm 0.18 in4.6 mm
04:30 PM 76.2°F24.6°C 64.0°F17.8°C 66% Calm Calm -- 29.91 in1012.9 mb - 0.00 in0.0 mm 0.18 in4.6 mm
04:40 PM 76.0°F24.4°C 62.9°F17.2°C 64% Calm Calm -- 29.91 in1012.9 mb - 0.00 in0.0 mm 0.18 in4.6 mm
04:50 PM 75.3°F24.1°C 62.3°F16.8°C 64% Calm Calm -- 29.91 in1012.9 mb - 0.00 in0.0 mm 0.18 in4.6 mm
05:00 PM 75.3°F24.1°C 61.9°F16.6°C 63% Calm Calm -- 29.91 in1012.9 mb - 0.00 in0.0 mm 0.18 in4.6 mm
05:10 PM 75.5°F24.2°C 60.2°F15.7°C 59% Calm Calm -- 29.92 in1013.2 mb - 0.00 in0.0 mm 0.18 in4.6 mm
05:20 PM 75.3°F24.1°C 60.0°F15.6°C 59% Calm Calm -- 29.92 in1013.2 mb - 0.00 in0.0 mm 0.18 in4.6 mm
05:30 PM 74.8°F23.8°C 62.7°F17.1°C 66% Calm Calm -- 29.92 in1013.2 mb - 0.00 in0.0 mm 0.18 in4.6 mm
05:40 PM 73.3°F22.9°C 64.1°F17.8°C 73% Calm Calm -- 29.93 in1013.5 mb - 0.00 in0.0 mm 0.18 in4.6 mm
05:50 PM 72.5°F22.5°C 64.5°F18.1°C 76% Calm Calm -- 29.93 in1013.5 mb - 0.00 in0.0 mm 0.18 in4.6 mm
06:00 PM 71.8°F22.1°C 64.2°F17.9°C 77% Calm Calm -- 29.94 in1013.9 mb - 0.00 in0.0 mm 0.18 in4.6 mm
06:10 PM 70.8°F21.6°C 64.0°F17.8°C 79% Calm Calm -- 29.94 in1013.9 mb - 0.00 in0.0 mm 0.18 in4.6 mm
06:20 PM 70.2°F21.2°C 63.0°F17.2°C 78% Calm Calm -- 29.94 in1013.9 mb - 0.00 in0.0 mm 0.18 in4.6 mm
06:30 PM 69.6°F20.9°C 63.6°F17.6°C 81% Calm Calm -- 29.95 in1014.2 mb - 0.00 in0.0 mm 0.18 in4.6 mm
06:40 PM 69.0°F20.6°C 63.3°F17.4°C 82% Calm Calm -- 29.95 in1014.2 mb - 0.00 in0.0 mm 0.18 in4.6 mm
06:50 PM 68.5°F20.3°C 63.5°F17.5°C 84% Calm Calm -- 29.96 in1014.6 mb - 0.00 in0.0 mm 0.18 in4.6 mm
07:00 PM 68.3°F20.2°C 62.9°F17.2°C 83% Calm Calm -- 29.97 in1014.9 mb - 0.00 in0.0 mm 0.18 in4.6 mm
07:10 PM 68.1°F20.1°C 62.7°F17.1°C 83% Calm Calm -- 29.98 in1015.2 mb - 0.00 in0.0 mm 0.18 in4.6 mm
07:20 PM 68.1°F20.1°C 62.4°F16.9°C 82% Calm Calm -- 29.97 in1014.9 mb - 0.00 in0.0 mm 0.18 in4.6 mm
07:30 PM 67.9°F19.9°C 62.2°F16.8°C 82% Calm Calm -- 29.98 in1015.2 mb - 0.00 in0.0 mm 0.18 in4.6 mm
07:40 PM 67.9°F19.9°C 61.5°F16.4°C 80% Calm Calm -- 29.97 in1014.9 mb - 0.00 in0.0 mm 0.18 in4.6 mm
07:50 PM 68.0°F20.0°C 60.9°F16.1°C 78% Calm Calm -- 29.98 in1015.2 mb - 0.00 in0.0 mm 0.18 in4.6 mm
08:00 PM 68.1°F20.1°C 61.3°F16.3°C 79% Calm Calm -- 29.98 in1015.2 mb - 0.00 in0.0 mm 0.18 in4.6 mm
08:10 PM 67.9°F19.9°C 61.1°F16.2°C 79% Calm Calm -- 29.99 in1015.6 mb - 0.00 in0.0 mm 0.18 in4.6 mm
08:20 PM 67.7°F19.8°C 61.0°F16.1°C 79% Calm Calm -- 29.99 in1015.6 mb - 0.00 in0.0 mm 0.18 in4.6 mm
08:30 PM 67.6°F19.8°C 60.9°F16.1°C 79% Calm Calm -- 29.98 in1015.2 mb - 0.00 in0.0 mm 0.18 in4.6 mm
08:40 PM 67.6°F19.8°C 60.8°F16.0°C 79% Calm Calm -- 29.99 in1015.6 mb - 0.00 in0.0 mm 0.18 in4.6 mm
08:50 PM 67.6°F19.8°C 60.5°F15.8°C 78% Calm Calm -- 30.00 in1015.9 mb - 0.00 in0.0 mm 0.18 in4.6 mm
09:00 PM 67.4°F19.7°C 61.0°F16.1°C 80% Calm Calm -- 30.00 in1015.9 mb - 0.00 in0.0 mm 0.18 in4.6 mm
09:10 PM 66.7°F19.3°C 61.0°F16.1°C 82% Calm Calm -- 30.00 in1015.9 mb - 0.00 in0.0 mm 0.18 in4.6 mm
09:20 PM 67.0°F19.4°C 61.0°F16.1°C 81% Calm Calm -- 30.00 in1015.9 mb - 0.00 in0.0 mm 0.18 in4.6 mm
09:30 PM 67.1°F19.5°C 61.4°F16.3°C 82% Calm Calm -- 30.02 in1016.6 mb - 0.00 in0.0 mm 0.18 in4.6 mm
09:40 PM 67.2°F19.6°C 60.8°F16.0°C 80% Calm Calm -- 30.02 in1016.6 mb - 0.00 in0.0 mm 0.18 in4.6 mm
09:50 PM 67.0°F19.4°C 61.3°F16.3°C 82% Calm Calm -- 30.02 in1016.6 mb - 0.00 in0.0 mm 0.18 in4.6 mm
10:00 PM 66.9°F19.4°C 60.9°F16.1°C 81% Calm Calm -- 30.02 in1016.6 mb - 0.00 in0.0 mm 0.18 in4.6 mm
10:10 PM 67.0°F19.4°C 60.3°F15.7°C 79% Calm Calm -- 30.02 in1016.6 mb - 0.00 in0.0 mm 0.18 in4.6 mm
10:20 PM 66.8°F19.3°C 59.0°F15.0°C 76% Calm Calm -- 30.03 in1016.9 mb - 0.00 in0.0 mm 0.18 in4.6 mm
10:30 PM 67.0°F19.4°C 58.8°F14.9°C 75% Calm Calm -- 30.03 in1016.9 mb - 0.00 in0.0 mm 0.18 in4.6 mm
10:40 PM 67.1°F19.5°C 60.0°F15.6°C 78% Calm Calm -- 30.03 in1016.9 mb - 0.00 in0.0 mm 0.18 in4.6 mm
10:50 PM 67.3°F19.6°C 59.5°F15.3°C 76% Calm Calm -- 30.03 in1016.9 mb - 0.00 in0.0 mm 0.18 in4.6 mm
11:00 PM 67.7°F19.8°C 59.5°F15.3°C 75% Calm Calm -- 30.03 in1016.9 mb - 0.00 in0.0 mm 0.18 in4.6 mm
11:10 PM 67.5°F19.7°C 58.5°F14.7°C 73% Calm Calm -- 30.04 in1017.3 mb - 0.00 in0.0 mm 0.18 in4.6 mm
11:20 PM 67.6°F19.8°C 58.2°F14.6°C 72% Calm Calm -- 30.03 in1016.9 mb - 0.00 in0.0 mm 0.18 in4.6 mm
11:30 PM 67.4°F19.7°C 59.5°F15.3°C 76% Calm Calm -- 30.03 in1016.9 mb - 0.00 in0.0 mm 0.18 in4.6 mm
11:40 PM 66.5°F19.2°C 59.1°F15.1°C 77% Calm Calm -- 30.03 in1016.9 mb - 0.00 in0.0 mm 0.18 in4.6 mm
11:50 PM 66.8°F19.3°C 59.0°F15.0°C 76% Calm Calm -- 30.02 in1016.6 mb - 0.00 in0.0 mm 0.18 in4.6 mm